Terminal Aerodrome Forecast
Issued by NWS

Home | Current Version | Previous Version | Text Only | Print | Product List | Glossary On
Versions: 1 2 3 4 5 6 7 8 9 10 11 12 13 14 15
000
FTUS44 KLZK 182300
TAFLLQ
TAF
KLLQ 182337Z 1900/1924 07006KT P6SM VCSH SCT025 BKN120
     FM190200 05004KT P6SM SCT120 BKN250
     FM190700 05003KT 5SM BR SCT020
     FM191000 04003KT 3SM BR SCT012 BKN020
     FM191400 06003KT P6SM SCT015 OVC025
     FM191700 10005KT P6SM SCT025=

USA.gov is the U.S. government's official web portal to all federal, state and local government web resources and services.